sensor_id;sensor_type;location;lat;lon;timestamp;temperature;humidity
19415;DHT22;9843;48.882;12.592;2022-07-24T00:01:00;18.80;99.90
19415;DHT22;9843;48.882;12.592;2022-07-24T00:03:27;18.80;99.90
19415;DHT22;9843;48.882;12.592;2022-07-24T00:05:53;18.80;99.90
19415;DHT22;9843;48.882;12.592;2022-07-24T00:08:20;18.80;99.90
19415;DHT22;9843;48.882;12.592;2022-07-24T00:10:48;18.80;99.90
19415;DHT22;9843;48.882;12.592;2022-07-24T00:13:15;18.80;99.90
19415;DHT22;9843;48.882;12.592;2022-07-24T00:15:41;18.80;99.90
19415;DHT22;9843;48.882;12.592;2022-07-24T00:18:08;18.80;99.90
19415;DHT22;9843;48.882;12.592;2022-07-24T00:20:35;18.70;99.90
19415;DHT22;9843;48.882;12.592;2022-07-24T00:23:02;18.70;99.90
19415;DHT22;9843;48.882;12.592;2022-07-24T00:25:28;18.60;99.90
19415;DHT22;9843;48.882;12.592;2022-07-24T00:27:56;18.60;99.90
19415;DHT22;9843;48.882;12.592;2022-07-24T00:30:23;18.50;99.90
19415;DHT22;9843;48.882;12.592;2022-07-24T00:32:50;18.50;99.90
19415;DHT22;9843;48.882;12.592;2022-07-24T00:35:16;18.40;99.90
19415;DHT22;9843;48.882;12.592;2022-07-24T00:37:43;18.40;99.90
19415;DHT22;9843;48.882;12.592;2022-07-24T00:40:11;18.30;99.90
19415;DHT22;9843;48.882;12.592;2022-07-24T00:42:38;18.30;99.90
19415;DHT22;9843;48.882;12.592;2022-07-24T00:45:07;18.30;99.90
19415;DHT22;9843;48.882;12.592;2022-07-24T00:47:34;18.30;99.90
19415;DHT22;9843;48.882;12.592;2022-07-24T00:50:01;18.30;99.90
19415;DHT22;9843;48.882;12.592;2022-07-24T00:52:29;18.30;99.90
19415;DHT22;9843;48.882;12.592;2022-07-24T00:54:56;18.30;99.90
19415;DHT22;9843;48.882;12.592;2022-07-24T00:57:23;18.30;99.90
19415;DHT22;9843;48.882;12.592;2022-07-24T00:59:50;18.30;99.90
19415;DHT22;9843;48.882;12.592;2022-07-24T01:02:18;18.30;99.90
19415;DHT22;9843;48.882;12.592;2022-07-24T01:04:44;18.30;99.90
19415;DHT22;9843;48.882;12.592;2022-07-24T01:07:11;18.30;99.90
19415;DHT22;9843;48.882;12.592;2022-07-24T01:09:38;18.30;99.90
19415;DHT22;9843;48.882;12.592;2022-07-24T01:12:06;18.30;99.90
19415;DHT22;9843;48.882;12.592;2022-07-24T01:14:33;18.20;99.90
19415;DHT22;9843;48.882;12.592;2022-07-24T01:16:59;18.10;99.90
19415;DHT22;9843;48.882;12.592;2022-07-24T01:19:27;18.10;99.90
19415;DHT22;9843;48.882;12.592;2022-07-24T01:21:55;18.10;99.90
19415;DHT22;9843;48.882;12.592;2022-07-24T01:24:22;18.10;99.90
19415;DHT22;9843;48.882;12.592;2022-07-24T01:26:49;18.00;99.90
19415;DHT22;9843;48.882;12.592;2022-07-24T01:29:16;18.00;99.90
19415;DHT22;9843;48.882;12.592;2022-07-24T01:31:43;18.00;99.90
19415;DHT22;9843;48.882;12.592;2022-07-24T01:34:10;18.00;99.90
19415;DHT22;9843;48.882;12.592;2022-07-24T01:36:36;18.00;99.90
19415;DHT22;9843;48.882;12.592;2022-07-24T01:39:04;18.00;99.90
19415;DHT22;9843;48.882;12.592;2022-07-24T01:41:31;18.00;99.90
19415;DHT22;9843;48.882;12.592;2022-07-24T01:43:58;17.90;99.90
19415;DHT22;9843;48.882;12.592;2022-07-24T01:46:25;17.90;99.90
19415;DHT22;9843;48.882;12.592;2022-07-24T01:48:52;17.90;99.90
19415;DHT22;9843;48.882;12.592;2022-07-24T01:51:19;17.90;99.90
19415;DHT22;9843;48.882;12.592;2022-07-24T01:53:45;17.90;99.90
19415;DHT22;9843;48.882;12.592;2022-07-24T01:56:13;17.80;99.90
19415;DHT22;9843;48.882;12.592;2022-07-24T01:58:40;17.90;99.90
19415;DHT22;9843;48.882;12.592;2022-07-24T02:01:07;17.90;99.90
19415;DHT22;9843;48.882;12.592;2022-07-24T02:03:33;17.90;99.90
19415;DHT22;9843;48.882;12.592;2022-07-24T02:06:00;17.90;99.90
19415;DHT22;9843;48.882;12.592;2022-07-24T02:08:27;17.90;99.90
19415;DHT22;9843;48.882;12.592;2022-07-24T02:10:53;17.90;99.90
19415;DHT22;9843;48.882;12.592;2022-07-24T02:13:21;17.90;99.90
19415;DHT22;9843;48.882;12.592;2022-07-24T02:15:48;17.90;99.90
19415;DHT22;9843;48.882;12.592;2022-07-24T02:18:15;17.90;99.90
19415;DHT22;9843;48.882;12.592;2022-07-24T02:20:41;17.90;99.90
19415;DHT22;9843;48.882;12.592;2022-07-24T02:23:08;17.90;99.90
19415;DHT22;9843;48.882;12.592;2022-07-24T02:25:35;17.90;99.90
19415;DHT22;9843;48.882;12.592;2022-07-24T02:28:02;17.80;99.90
19415;DHT22;9843;48.882;12.592;2022-07-24T02:30:30;17.80;99.90
19415;DHT22;9843;48.882;12.592;2022-07-24T02:32:57;17.90;99.90
19415;DHT22;9843;48.882;12.592;2022-07-24T02:35:23;17.80;99.90
19415;DHT22;9843;48.882;12.592;2022-07-24T02:37:50;17.80;99.90
19415;DHT22;9843;48.882;12.592;2022-07-24T02:40:17;17.80;99.90
19415;DHT22;9843;48.882;12.592;2022-07-24T02:42:43;17.90;99.90
19415;DHT22;9843;48.882;12.592;2022-07-24T02:45:10;17.90;99.90
19415;DHT22;9843;48.882;12.592;2022-07-24T02:47:48;18.00;99.90
19415;DHT22;9843;48.882;12.592;2022-07-24T02:50:15;18.00;99.90
19415;DHT22;9843;48.882;12.592;2022-07-24T02:52:43;18.10;99.90
19415;DHT22;9843;48.882;12.592;2022-07-24T02:55:10;18.10;99.90
19415;DHT22;9843;48.882;12.592;2022-07-24T02:57:37;18.10;99.90
19415;DHT22;9843;48.882;12.592;2022-07-24T03:00:06;18.10;99.90
19415;DHT22;9843;48.882;12.592;2022-07-24T03:02:33;18.10;99.90
19415;DHT22;9843;48.882;12.592;2022-07-24T03:05:02;18.10;99.90
19415;DHT22;9843;48.882;12.592;2022-07-24T03:07:29;18.20;99.90
19415;DHT22;9843;48.882;12.592;2022-07-24T03:09:56;18.20;99.90
19415;DHT22;9843;48.882;12.592;2022-07-24T03:12:23;18.20;99.90
19415;DHT22;9843;48.882;12.592;2022-07-24T03:14:49;18.20;99.90
19415;DHT22;9843;48.882;12.592;2022-07-24T03:17:17;18.10;99.90
19415;DHT22;9843;48.882;12.592;2022-07-24T03:19:43;18.20;99.90
19415;DHT22;9843;48.882;12.592;2022-07-24T03:22:11;18.10;99.90
19415;DHT22;9843;48.882;12.592;2022-07-24T03:24:38;18.10;99.90
19415;DHT22;9843;48.882;12.592;2022-07-24T03:27:05;18.00;99.90
19415;DHT22;9843;48.882;12.592;2022-07-24T03:29:32;17.90;99.90
19415;DHT22;9843;48.882;12.592;2022-07-24T03:31:58;17.90;99.90
19415;DHT22;9843;48.882;12.592;2022-07-24T03:34:25;17.80;99.90
19415;DHT22;9843;48.882;12.592;2022-07-24T03:36:52;17.70;99.90
19415;DHT22;9843;48.882;12.592;2022-07-24T03:39:20;17.70;99.90
19415;DHT22;9843;48.882;12.592;2022-07-24T03:41:46;17.70;99.90
19415;DHT22;9843;48.882;12.592;2022-07-24T03:44:13;17.60;99.90
19415;DHT22;9843;48.882;12.592;2022-07-24T03:46:40;17.60;99.90
19415;DHT22;9843;48.882;12.592;2022-07-24T03:49:07;17.60;99.90
19415;DHT22;9843;48.882;12.592;2022-07-24T03:51:33;17.60;99.90
19415;DHT22;9843;48.882;12.592;2022-07-24T03:54:01;17.50;99.90
19415;DHT22;9843;48.882;12.592;2022-07-24T03:56:29;17.50;99.90
19415;DHT22;9843;48.882;12.592;2022-07-24T03:58:56;17.60;99.90
19415;DHT22;9843;48.882;12.592;2022-07-24T04:01:23;17.50;99.90
19415;DHT22;9843;48.882;12.592;2022-07-24T04:03:50;17.60;99.90
19415;DHT22;9843;48.882;12.592;2022-07-24T04:06:17;17.60;99.90
19415;DHT22;9843;48.882;12.592;2022-07-24T04:08:43;17.60;99.90
19415;DHT22;9843;48.882;12.592;2022-07-24T04:11:10;17.60;99.90
19415;DHT22;9843;48.882;12.592;2022-07-24T04:13:38;17.70;99.90
19415;DHT22;9843;48.882;12.592;2022-07-24T04:16:05;17.70;99.90
19415;DHT22;9843;48.882;12.592;2022-07-24T04:18:32;17.70;99.90
19415;DHT22;9843;48.882;12.592;2022-07-24T04:20:59;17.70;99.90
19415;DHT22;9843;48.882;12.592;2022-07-24T04:23:25;17.70;99.90
19415;DHT22;9843;48.882;12.592;2022-07-24T04:25:52;17.80;99.90
19415;DHT22;9843;48.882;12.592;2022-07-24T04:28:19;17.80;99.90
19415;DHT22;9843;48.882;12.592;2022-07-24T04:30:47;17.90;99.90
19415;DHT22;9843;48.882;12.592;2022-07-24T04:33:13;17.90;99.90
19415;DHT22;9843;48.882;12.592;2022-07-24T04:35:40;18.00;99.90
19415;DHT22;9843;48.882;12.592;2022-07-24T04:38:07;18.10;99.90
19415;DHT22;9843;48.882;12.592;2022-07-24T04:40:33;18.20;99.90
19415;DHT22;9843;48.882;12.592;2022-07-24T04:43:00;18.40;99.90
19415;DHT22;9843;48.882;12.592;2022-07-24T04:45:27;18.60;99.90
19415;DHT22;9843;48.882;12.592;2022-07-24T04:47:55;18.70;99.90
19415;DHT22;9843;48.882;12.592;2022-07-24T04:50:22;18.90;99.90
19415;DHT22;9843;48.882;12.592;2022-07-24T04:52:48;19.00;99.90
19415;DHT22;9843;48.882;12.592;2022-07-24T04:55:15;19.10;99.90
19415;DHT22;9843;48.882;12.592;2022-07-24T04:57:43;19.30;99.90
19415;DHT22;9843;48.882;12.592;2022-07-24T05:00:11;19.50;99.90
19415;DHT22;9843;48.882;12.592;2022-07-24T05:02:39;19.50;99.90
19415;DHT22;9843;48.882;12.592;2022-07-24T05:05:08;19.60;99.90
19415;DHT22;9843;48.882;12.592;2022-07-24T05:07:34;19.70;99.90
19415;DHT22;9843;48.882;12.592;2022-07-24T05:10:01;19.80;99.90
19415;DHT22;9843;48.882;12.592;2022-07-24T05:12:28;20.00;99.90
19415;DHT22;9843;48.882;12.592;2022-07-24T05:14:55;20.10;99.90
19415;DHT22;9843;48.882;12.592;2022-07-24T05:17:21;20.20;99.90
19415;DHT22;9843;48.882;12.592;2022-07-24T05:19:48;20.30;99.90
19415;DHT22;9843;48.882;12.592;2022-07-24T05:22:16;20.20;99.90
19415;DHT22;9843;48.882;12.592;2022-07-24T05:24:43;20.20;99.90
19415;DHT22;9843;48.882;12.592;2022-07-24T05:27:09;20.20;99.90
19415;DHT22;9843;48.882;12.592;2022-07-24T05:29:36;20.20;99.90
19415;DHT22;9843;48.882;12.592;2022-07-24T05:32:03;20.20;99.90
19415;DHT22;9843;48.882;12.592;2022-07-24T05:34:30;20.20;99.90
19415;DHT22;9843;48.882;12.592;2022-07-24T05:36:57;20.20;99.90
19415;DHT22;9843;48.882;12.592;2022-07-24T05:39:25;20.20;99.90
19415;DHT22;9843;48.882;12.592;2022-07-24T05:41:52;20.30;99.90
19415;DHT22;9843;48.882;12.592;2022-07-24T05:44:18;20.30;99.90
19415;DHT22;9843;48.882;12.592;2022-07-24T05:46:45;20.30;99.90
19415;DHT22;9843;48.882;12.592;2022-07-24T05:49:12;20.30;99.90
19415;DHT22;9843;48.882;12.592;2022-07-24T05:51:39;20.40;99.90
19415;DHT22;9843;48.882;12.592;2022-07-24T05:54:05;20.50;99.90
19415;DHT22;9843;48.882;12.592;2022-07-24T05:56:33;20.60;99.90
19415;DHT22;9843;48.882;12.592;2022-07-24T05:59:00;20.70;99.90
19415;DHT22;9843;48.882;12.592;2022-07-24T06:01:27;21.00;99.90
19415;DHT22;9843;48.882;12.592;2022-07-24T06:03:53;21.20;99.90
19415;DHT22;9843;48.882;12.592;2022-07-24T06:06:20;21.40;99.90
19415;DHT22;9843;48.882;12.592;2022-07-24T06:08:47;21.70;99.90
19415;DHT22;9843;48.882;12.592;2022-07-24T06:11:13;21.90;99.90
19415;DHT22;9843;48.882;12.592;2022-07-24T06:13:41;22.10;99.90
19415;DHT22;9843;48.882;12.592;2022-07-24T06:16:08;22.30;99.90
19415;DHT22;9843;48.882;12.592;2022-07-24T06:18:35;22.30;99.90
19415;DHT22;9843;48.882;12.592;2022-07-24T06:21:02;22.20;99.90
19415;DHT22;9843;48.882;12.592;2022-07-24T06:23:29;22.50;99.90
19415;DHT22;9843;48.882;12.592;2022-07-24T06:25:55;22.90;99.90
19415;DHT22;9843;48.882;12.592;2022-07-24T06:28:22;22.90;99.90
19415;DHT22;9843;48.882;12.592;2022-07-24T06:30:50;23.30;99.90
19415;DHT22;9843;48.882;12.592;2022-07-24T06:33:17;23.10;99.90
19415;DHT22;9843;48.882;12.592;2022-07-24T06:35:43;23.40;99.90
19415;DHT22;9843;48.882;12.592;2022-07-24T06:38:10;23.70;99.90
19415;DHT22;9843;48.882;12.592;2022-07-24T06:40:37;24.10;99.90
19415;DHT22;9843;48.882;12.592;2022-07-24T06:43:04;24.30;99.90
19415;DHT22;9843;48.882;12.592;2022-07-24T06:45:31;24.50;99.90
19415;DHT22;9843;48.882;12.592;2022-07-24T06:48:00;24.70;99.90
19415;DHT22;9843;48.882;12.592;2022-07-24T06:50:27;25.00;99.90
19415;DHT22;9843;48.882;12.592;2022-07-24T06:52:53;25.10;99.90
19415;DHT22;9843;48.882;12.592;2022-07-24T06:55:21;25.50;99.90
19415;DHT22;9843;48.882;12.592;2022-07-24T06:57:48;25.50;99.90
19415;DHT22;9843;48.882;12.592;2022-07-24T07:00:15;25.60;99.90
19415;DHT22;9843;48.882;12.592;2022-07-24T07:02:42;25.90;99.90
19415;DHT22;9843;48.882;12.592;2022-07-24T07:05:10;26.10;99.90
19415;DHT22;9843;48.882;12.592;2022-07-24T07:07:37;26.20;99.90
19415;DHT22;9843;48.882;12.592;2022-07-24T07:10:05;26.50;99.90
19415;DHT22;9843;48.882;12.592;2022-07-24T07:12:32;26.70;99.90
19415;DHT22;9843;48.882;12.592;2022-07-24T07:14:59;26.90;99.90
19415;DHT22;9843;48.882;12.592;2022-07-24T07:17:26;27.00;99.90
19415;DHT22;9843;48.882;12.592;2022-07-24T07:19:52;27.30;99.90
19415;DHT22;9843;48.882;12.592;2022-07-24T07:22:20;27.50;99.90
19415;DHT22;9843;48.882;12.592;2022-07-24T07:24:47;27.60;99.90
19415;DHT22;9843;48.882;12.592;2022-07-24T07:27:14;28.10;99.90
19415;DHT22;9843;48.882;12.592;2022-07-24T07:29:41;28.10;99.90
19415;DHT22;9843;48.882;12.592;2022-07-24T07:32:07;28.10;99.90
19415;DHT22;9843;48.882;12.592;2022-07-24T07:34:34;28.30;99.90
19415;DHT22;9843;48.882;12.592;2022-07-24T07:37:01;28.20;99.90
19415;DHT22;9843;48.882;12.592;2022-07-24T07:39:29;28.30;99.90
19415;DHT22;9843;48.882;12.592;2022-07-24T07:41:55;28.70;99.90
19415;DHT22;9843;48.882;12.592;2022-07-24T07:44:22;29.30;99.90
19415;DHT22;9843;48.882;12.592;2022-07-24T07:46:49;28.80;99.90
19415;DHT22;9843;48.882;12.592;2022-07-24T07:49:15;28.80;99.90
19415;DHT22;9843;48.882;12.592;2022-07-24T07:51:42;28.90;99.90
19415;DHT22;9843;48.882;12.592;2022-07-24T07:54:12;28.50;99.90
19415;DHT22;9843;48.882;12.592;2022-07-24T07:56:40;28.50;99.90
19415;DHT22;9843;48.882;12.592;2022-07-24T07:59:07;28.70;99.90
19415;DHT22;9843;48.882;12.592;2022-07-24T08:01:34;29.10;99.90
19415;DHT22;9843;48.882;12.592;2022-07-24T08:04:01;29.10;99.90
19415;DHT22;9843;48.882;12.592;2022-07-24T08:06:27;29.60;99.90
19415;DHT22;9843;48.882;12.592;2022-07-24T08:08:54;29.70;99.90
19415;DHT22;9843;48.882;12.592;2022-07-24T08:11:21;30.60;99.90
19415;DHT22;9843;48.882;12.592;2022-07-24T08:13:49;30.60;99.90
19415;DHT22;9843;48.882;12.592;2022-07-24T08:16:16;31.60;99.80
19415;DHT22;9843;48.882;12.592;2022-07-24T08:18:42;32.20;97.40
19415;DHT22;9843;48.882;12.592;2022-07-24T08:21:09;33.20;95.70
19415;DHT22;9843;48.882;12.592;2022-07-24T08:23:36;32.60;92.50
19415;DHT22;9843;48.882;12.592;2022-07-24T08:26:02;31.80;91.50
19415;DHT22;9843;48.882;12.592;2022-07-24T08:28:29;32.30;92.50
19415;DHT22;9843;48.882;12.592;2022-07-24T08:30:57;32.00;91.10
19415;DHT22;9843;48.882;12.592;2022-07-24T08:33:24;31.80;90.70
19415;DHT22;9843;48.882;12.592;2022-07-24T08:35:51;30.90;91.40
19415;DHT22;9843;48.882;12.592;2022-07-24T08:38:17;31.40;92.30
19415;DHT22;9843;48.882;12.592;2022-07-24T08:40:45;32.20;90.90
19415;DHT22;9843;48.882;12.592;2022-07-24T08:43:12;33.20;90.70
19415;DHT22;9843;48.882;12.592;2022-07-24T08:45:41;33.30;86.20
19415;DHT22;9843;48.882;12.592;2022-07-24T08:48:10;32.30;87.70
19415;DHT22;9843;48.882;12.592;2022-07-24T08:50:39;32.30;89.80
19415;DHT22;9843;48.882;12.592;2022-07-24T08:53:07;33.30;86.10
19415;DHT22;9843;48.882;12.592;2022-07-24T08:55:34;31.90;87.20
19415;DHT22;9843;48.882;12.592;2022-07-24T08:58:01;32.70;86.20
19415;DHT22;9843;48.882;12.592;2022-07-24T09:00:30;32.00;85.10
19415;DHT22;9843;48.882;12.592;2022-07-24T09:02:57;32.50;85.30
19415;DHT22;9843;48.882;12.592;2022-07-24T09:05:25;33.30;82.40
19415;DHT22;9843;48.882;12.592;2022-07-24T09:08:08;34.10;78.20
19415;DHT22;9843;48.882;12.592;2022-07-24T09:10:36;34.00;77.20
19415;DHT22;9843;48.882;12.592;2022-07-24T09:13:12;35.10;74.10
19415;DHT22;9843;48.882;12.592;2022-07-24T09:15:45;36.40;74.90
19415;DHT22;9843;48.882;12.592;2022-07-24T09:18:28;37.10;70.20
19415;DHT22;9843;48.882;12.592;2022-07-24T09:20:57;35.80;69.50
19415;DHT22;9843;48.882;12.592;2022-07-24T09:23:25;37.60;68.40
19415;DHT22;9843;48.882;12.592;2022-07-24T09:25:53;37.50;64.60
19415;DHT22;9843;48.882;12.592;2022-07-24T09:28:20;37.00;63.50
19415;DHT22;9843;48.882;12.592;2022-07-24T09:30:48;37.90;61.80
19415;DHT22;9843;48.882;12.592;2022-07-24T09:33:16;38.50;59.80
19415;DHT22;9843;48.882;12.592;2022-07-24T09:35:45;38.70;58.80
19415;DHT22;9843;48.882;12.592;2022-07-24T09:38:15;39.70;59.70
19415;DHT22;9843;48.882;12.592;2022-07-24T09:40:44;40.30;57.40
19415;DHT22;9843;48.882;12.592;2022-07-24T09:43:20;40.60;55.00
19415;DHT22;9843;48.882;12.592;2022-07-24T09:45:56;39.40;55.30
19415;DHT22;9843;48.882;12.592;2022-07-24T09:48:24;40.50;56.30
19415;DHT22;9843;48.882;12.592;2022-07-24T09:50:52;41.00;53.90
19415;DHT22;9843;48.882;12.592;2022-07-24T09:53:22;40.10;53.70
19415;DHT22;9843;48.882;12.592;2022-07-24T09:55:59;39.30;51.50
19415;DHT22;9843;48.882;12.592;2022-07-24T09:58:27;39.50;54.60
19415;DHT22;9843;48.882;12.592;2022-07-24T10:00:55;40.70;52.50
19415;DHT22;9843;48.882;12.592;2022-07-24T10:03:24;41.70;51.80
19415;DHT22;9843;48.882;12.592;2022-07-24T10:05:55;40.40;50.10
19415;DHT22;9843;48.882;12.592;2022-07-24T10:08:24;41.30;50.80
19415;DHT22;9843;48.882;12.592;2022-07-24T10:10:51;42.50;51.20
19415;DHT22;9843;48.882;12.592;2022-07-24T10:13:18;43.30;49.60
19415;DHT22;9843;48.882;12.592;2022-07-24T10:16:10;43.90;48.90
19415;DHT22;9843;48.882;12.592;2022-07-24T10:18:46;44.80;49.40
19415;DHT22;9843;48.882;12.592;2022-07-24T10:21:15;45.60;46.30
19415;DHT22;9843;48.882;12.592;2022-07-24T10:23:58;45.60;44.40
19415;DHT22;9843;48.882;12.592;2022-07-24T10:26:33;45.70;43.30
19415;DHT22;9843;48.882;12.592;2022-07-24T10:29:05;45.70;43.60
19415;DHT22;9843;48.882;12.592;2022-07-24T10:31:36;42.60;44.60
19415;DHT22;9843;48.882;12.592;2022-07-24T10:34:06;43.20;46.30
19415;DHT22;9843;48.882;12.592;2022-07-24T10:36:41;42.00;44.20
19415;DHT22;9843;48.882;12.592;2022-07-24T10:39:18;42.50;46.40
19415;DHT22;9843;48.882;12.592;2022-07-24T10:41:59;42.80;46.80
19415;DHT22;9843;48.882;12.592;2022-07-24T10:44:26;43.80;47.40
19415;DHT22;9843;48.882;12.592;2022-07-24T10:47:02;44.30;44.70
19415;DHT22;9843;48.882;12.592;2022-07-24T10:49:40;44.70;44.90
19415;DHT22;9843;48.882;12.592;2022-07-24T10:52:09;44.70;44.70
19415;DHT22;9843;48.882;12.592;2022-07-24T10:54:37;45.50;43.90
19415;DHT22;9843;48.882;12.592;2022-07-24T10:57:04;45.60;41.60
19415;DHT22;9843;48.882;12.592;2022-07-24T10:59:33;45.50;42.00
19415;DHT22;9843;48.882;12.592;2022-07-24T11:02:24;45.30;43.90
19415;DHT22;9843;48.882;12.592;2022-07-24T11:05:22;45.70;43.70
19415;DHT22;9843;48.882;12.592;2022-07-24T11:11:11;43.60;42.00
19415;DHT22;9843;48.882;12.592;2022-07-24T11:13:56;43.00;43.80
19415;DHT22;9843;48.882;12.592;2022-07-24T11:16:29;45.10;45.10
19415;DHT22;9843;48.882;12.592;2022-07-24T11:19:28;46.10;41.90
19415;DHT22;9843;48.882;12.592;2022-07-24T11:22:04;45.30;41.90
19415;DHT22;9843;48.882;12.592;2022-07-24T11:24:31;45.20;43.80
19415;DHT22;9843;48.882;12.592;2022-07-24T11:27:02;46.20;44.60
19415;DHT22;9843;48.882;12.592;2022-07-24T11:29:33;46.70;42.20
19415;DHT22;9843;48.882;12.592;2022-07-24T11:32:02;47.40;42.70
19415;DHT22;9843;48.882;12.592;2022-07-24T11:34:30;47.30;41.20
19415;DHT22;9843;48.882;12.592;2022-07-24T11:36:59;47.40;41.30
19415;DHT22;9843;48.882;12.592;2022-07-24T11:39:28;47.90;40.20
19415;DHT22;9843;48.882;12.592;2022-07-24T11:41:56;48.10;41.00
19415;DHT22;9843;48.882;12.592;2022-07-24T11:44:26;48.50;40.80
19415;DHT22;9843;48.882;12.592;2022-07-24T11:46:55;48.00;39.30
19415;DHT22;9843;48.882;12.592;2022-07-24T11:49:23;47.80;39.40
19415;DHT22;9843;48.882;12.592;2022-07-24T11:51:52;48.00;40.10
19415;DHT22;9843;48.882;12.592;2022-07-24T11:54:21;47.80;39.90
19415;DHT22;9843;48.882;12.592;2022-07-24T11:56:49;47.10;40.40
19415;DHT22;9843;48.882;12.592;2022-07-24T11:59:25;46.40;41.00
19415;DHT22;9843;48.882;12.592;2022-07-24T12:01:55;44.60;41.90
19415;DHT22;9843;48.882;12.592;2022-07-24T12:04:23;41.90;44.80
19415;DHT22;9843;48.882;12.592;2022-07-24T12:06:50;40.50;46.50
19415;DHT22;9843;48.882;12.592;2022-07-24T12:09:17;40.30;48.80
19415;DHT22;9843;48.882;12.592;2022-07-24T12:11:43;40.90;51.40
19415;DHT22;9843;48.882;12.592;2022-07-24T12:14:14;41.40;46.40
19415;DHT22;9843;48.882;12.592;2022-07-24T12:16:43;41.30;45.60
19415;DHT22;9843;48.882;12.592;2022-07-24T12:19:17;41.20;46.50
19415;DHT22;9843;48.882;12.592;2022-07-24T12:21:46;41.30;48.10
19415;DHT22;9843;48.882;12.592;2022-07-24T12:24:14;41.10;47.20
19415;DHT22;9843;48.882;12.592;2022-07-24T12:26:51;41.30;46.40
19415;DHT22;9843;48.882;12.592;2022-07-24T12:29:18;41.80;46.90
19415;DHT22;9843;48.882;12.592;2022-07-24T12:31:46;41.80;46.50
19415;DHT22;9843;48.882;12.592;2022-07-24T12:34:13;41.70;46.40
19415;DHT22;9843;48.882;12.592;2022-07-24T12:36:40;41.80;48.40
19415;DHT22;9843;48.882;12.592;2022-07-24T12:39:07;41.90;45.90
19415;DHT22;9843;48.882;12.592;2022-07-24T12:41:43;42.20;47.40
19415;DHT22;9843;48.882;12.592;2022-07-24T12:44:10;42.60;46.80
19415;DHT22;9843;48.882;12.592;2022-07-24T12:46:38;42.80;45.00
19415;DHT22;9843;48.882;12.592;2022-07-24T12:49:08;43.10;44.70
19415;DHT22;9843;48.882;12.592;2022-07-24T12:51:46;42.60;44.80
19415;DHT22;9843;48.882;12.592;2022-07-24T12:54:18;42.00;45.90
19415;DHT22;9843;48.882;12.592;2022-07-24T12:56:46;41.40;46.00
19415;DHT22;9843;48.882;12.592;2022-07-24T12:59:24;40.50;45.80
19415;DHT22;9843;48.882;12.592;2022-07-24T13:01:53;40.20;47.50
19415;DHT22;9843;48.882;12.592;2022-07-24T13:04:23;40.00;47.30
19415;DHT22;9843;48.882;12.592;2022-07-24T13:06:51;39.20;47.20
19415;DHT22;9843;48.882;12.592;2022-07-24T13:09:19;38.10;48.20
19415;DHT22;9843;48.882;12.592;2022-07-24T13:11:47;36.20;49.40
19415;DHT22;9843;48.882;12.592;2022-07-24T13:14:16;35.50;50.80
19415;DHT22;9843;48.882;12.592;2022-07-24T13:16:45;35.40;52.10
19415;DHT22;9843;48.882;12.592;2022-07-24T13:19:12;35.30;53.10
19415;DHT22;9843;48.882;12.592;2022-07-24T13:21:41;34.90;53.60
19415;DHT22;9843;48.882;12.592;2022-07-24T13:24:09;34.60;54.20
19415;DHT22;9843;48.882;12.592;2022-07-24T13:26:37;34.10;53.10
19415;DHT22;9843;48.882;12.592;2022-07-24T13:29:04;33.60;54.40
19415;DHT22;9843;48.882;12.592;2022-07-24T13:31:31;33.00;55.40
19415;DHT22;9843;48.882;12.592;2022-07-24T13:33:58;32.70;56.40
19415;DHT22;9843;48.882;12.592;2022-07-24T13:36:25;32.40;56.30
19415;DHT22;9843;48.882;12.592;2022-07-24T13:38:53;32.20;57.20
19415;DHT22;9843;48.882;12.592;2022-07-24T13:41:20;32.10;58.00
19415;DHT22;9843;48.882;12.592;2022-07-24T13:43:48;32.10;58.20
19415;DHT22;9843;48.882;12.592;2022-07-24T13:46:16;32.00;57.40
19415;DHT22;9843;48.882;12.592;2022-07-24T13:48:43;32.40;58.80
19415;DHT22;9843;48.882;12.592;2022-07-24T13:51:10;33.10;57.90
19415;DHT22;9843;48.882;12.592;2022-07-24T13:53:37;33.90;57.20
19415;DHT22;9843;48.882;12.592;2022-07-24T13:56:06;34.20;56.50
19415;DHT22;9843;48.882;12.592;2022-07-24T13:58:33;33.90;56.60
19415;DHT22;9843;48.882;12.592;2022-07-24T14:01:01;33.60;56.40
19415;DHT22;9843;48.882;12.592;2022-07-24T14:03:28;33.90;57.00
19415;DHT22;9843;48.882;12.592;2022-07-24T14:05:55;34.20;53.70
19415;DHT22;9843;48.882;12.592;2022-07-24T14:08:23;33.90;55.40
19415;DHT22;9843;48.882;12.592;2022-07-24T14:10:50;33.50;54.60
19415;DHT22;9843;48.882;12.592;2022-07-24T14:13:19;33.00;55.90
19415;DHT22;9843;48.882;12.592;2022-07-24T14:15:46;32.60;56.40
19415;DHT22;9843;48.882;12.592;2022-07-24T14:18:13;32.60;57.30
19415;DHT22;9843;48.882;12.592;2022-07-24T14:20:40;33.10;57.30
19415;DHT22;9843;48.882;12.592;2022-07-24T14:23:07;33.10;55.90
19415;DHT22;9843;48.882;12.592;2022-07-24T14:25:33;32.90;56.50
19415;DHT22;9843;48.882;12.592;2022-07-24T14:28:00;33.20;57.30
19415;DHT22;9843;48.882;12.592;2022-07-24T14:30:28;33.70;56.70
19415;DHT22;9843;48.882;12.592;2022-07-24T14:32:55;34.20;56.30
19415;DHT22;9843;48.882;12.592;2022-07-24T14:35:22;34.60;54.20
19415;DHT22;9843;48.882;12.592;2022-07-24T14:37:48;34.90;54.90
19415;DHT22;9843;48.882;12.592;2022-07-24T14:40:15;35.40;54.70
19415;DHT22;9843;48.882;12.592;2022-07-24T14:42:42;35.80;52.00
19415;DHT22;9843;48.882;12.592;2022-07-24T14:45:10;35.80;51.40
19415;DHT22;9843;48.882;12.592;2022-07-24T14:47:38;35.70;50.60
19415;DHT22;9843;48.882;12.592;2022-07-24T14:50:06;35.60;50.80
19415;DHT22;9843;48.882;12.592;2022-07-24T14:52:33;34.70;50.60
19415;DHT22;9843;48.882;12.592;2022-07-24T14:54:59;34.10;51.70
19415;DHT22;9843;48.882;12.592;2022-07-24T14:57:26;33.80;52.90
19415;DHT22;9843;48.882;12.592;2022-07-24T14:59:53;33.10;53.00
19415;DHT22;9843;48.882;12.592;2022-07-24T15:02:20;33.40;54.00
19415;DHT22;9843;48.882;12.592;2022-07-24T15:04:48;33.20;53.00
19415;DHT22;9843;48.882;12.592;2022-07-24T15:07:15;33.20;53.60
19415;DHT22;9843;48.882;12.592;2022-07-24T15:09:41;33.00;53.80
19415;DHT22;9843;48.882;12.592;2022-07-24T15:12:08;32.20;54.20
19415;DHT22;9843;48.882;12.592;2022-07-24T15:14:35;31.50;55.40
19415;DHT22;9843;48.882;12.592;2022-07-24T15:17:02;31.30;56.30
19415;DHT22;9843;48.882;12.592;2022-07-24T15:19:28;31.50;57.30
19415;DHT22;9843;48.882;12.592;2022-07-24T15:21:56;31.40;56.50
19415;DHT22;9843;48.882;12.592;2022-07-24T15:24:23;31.10;57.00
19415;DHT22;9843;48.882;12.592;2022-07-24T15:29:18;30.90;57.50
19415;DHT22;9843;48.882;12.592;2022-07-24T15:31:45;30.80;57.20
19415;DHT22;9843;48.882;12.592;2022-07-24T15:34:13;30.80;57.60
19415;DHT22;9843;48.882;12.592;2022-07-24T15:36:40;30.80;57.70
19415;DHT22;9843;48.882;12.592;2022-07-24T15:39:09;30.40;57.20
19415;DHT22;9843;48.882;12.592;2022-07-24T15:41:36;30.30;57.90